Tabor, Illinois
Current Conditions -  °F | °C
As of 10:15 PM on Wednesday 28 Jan 2015 (Local Time) from KAAA Reporting Station
Scattered Clouds Scattered Clouds  
Wind Chill: 30°   Ceiling: Unl
Heat Index: 39°   Visibility: 10mi
Dew Point: 32°   Wind: 15mph
Humidity: 78%   Direction: 160°SSE
Pressure: 29.86"   Gusts: 22mph
Location:  40.252°N, 89.091°W
Report Text: KAAA 290415Z AUTO 16013G19KT 10SM SCT110 04/00 A2986 RMK AO2 T00370001
Loading
Personal Weather Stations






























Interactive Weather Map New forecast layout! Learn more

10-Day Weather Forecast

Advertisements
Track Severe Weather on mobile